sensor_id;sensor_type;location;lat;lon;timestamp;pressure;altitude;pressure_sealevel;temperature;humidity
46506;BME280;32220;49.808;9.968;2022-11-15T10:00:48;98437.50;;;10.69;99.02
46506;BME280;32220;49.808;9.968;2022-11-15T10:03:25;98421.94;;;11.74;93.88
46506;BME280;32220;49.808;9.968;2022-11-15T10:05:59;98441.47;;;13.77;83.69
46506;BME280;32220;49.808;9.968;2022-11-15T10:08:37;98453.84;;;15.82;71.51
46506;BME280;32220;49.808;9.968;2022-11-15T10:11:10;98470.91;;;17.97;63.10
46506;BME280;32220;49.808;9.968;2022-11-15T10:13:41;98480.25;;;20.74;56.69
46506;BME280;32220;49.808;9.968;2022-11-15T10:16:32;98498.69;;;23.56;49.31
46506;BME280;32220;49.808;9.968;2022-11-15T10:19:12;98515.94;;;24.56;44.83
46506;BME280;32220;49.808;9.968;2022-11-15T10:21:55;98530.63;;;24.90;41.47
46506;BME280;32220;49.808;9.968;2022-11-15T10:24:30;98520.25;;;25.77;40.47
46506;BME280;32220;49.808;9.968;2022-11-15T10:27:01;98522.69;;;26.06;40.14
46506;BME280;32220;49.808;9.968;2022-11-15T10:29:28;98521.09;;;25.77;38.83
46506;BME280;32220;49.808;9.968;2022-11-15T10:31:57;98527.88;;;26.62;37.35
46506;BME280;32220;49.808;9.968;2022-11-15T10:34:25;98523.94;;;26.71;38.03
46506;BME280;32220;49.808;9.968;2022-11-15T10:36:57;98524.22;;;27.16;35.72
46506;BME280;32220;49.808;9.968;2022-11-15T10:39:25;98516.81;;;27.76;35.60
46506;BME280;32220;49.808;9.968;2022-11-15T10:41:53;98509.28;;;27.78;35.18
46506;BME280;32220;49.808;9.968;2022-11-15T10:44:26;98505.78;;;27.44;35.66
46506;BME280;32220;49.808;9.968;2022-11-15T10:47:21;98498.72;;;26.17;35.69
46506;BME280;32220;49.808;9.968;2022-11-15T10:49:57;98478.25;;;25.32;37.67
46506;BME280;32220;49.808;9.968;2022-11-15T10:52:25;98464.34;;;24.64;39.40
46506;BME280;32220;49.808;9.968;2022-11-15T10:54:56;98452.69;;;24.21;40.69
46506;BME280;32220;49.808;9.968;2022-11-15T10:57:28;98440.69;;;24.09;41.61
46506;BME280;32220;49.808;9.968;2022-11-15T10:59:59;98400.72;;;23.54;41.11
46506;BME280;32220;49.808;9.968;2022-11-15T11:02:31;98426.25;;;23.51;41.92
46506;BME280;32220;49.808;9.968;2022-11-15T11:05:00;98419.63;;;23.69;42.75
46506;BME280;32220;49.808;9.968;2022-11-15T11:07:30;98431.56;;;23.59;41.84
46506;BME280;32220;49.808;9.968;2022-11-15T11:10:00;98425.13;;;23.31;42.11
46506;BME280;32220;49.808;9.968;2022-11-15T11:12:30;98422.22;;;23.03;41.90
46506;BME280;32220;49.808;9.968;2022-11-15T11:14:59;98378.25;;;22.42;42.21
46506;BME280;32220;49.808;9.968;2022-11-15T11:17:49;98401.13;;;22.32;43.11
46506;BME280;32220;49.808;9.968;2022-11-15T11:20:23;98418.59;;;22.21;42.57
46506;BME280;32220;49.808;9.968;2022-11-15T11:23:09;98408.91;;;22.04;43.47
46506;BME280;32220;49.808;9.968;2022-11-15T11:25:48;98409.47;;;21.91;43.58
46506;BME280;32220;49.808;9.968;2022-11-15T11:28:27;98397.59;;;21.77;44.11
46506;BME280;32220;49.808;9.968;2022-11-15T11:31:08;98405.81;;;21.61;44.21
46506;BME280;32220;49.808;9.968;2022-11-15T11:33:42;98400.97;;;21.48;44.89
46506;BME280;32220;49.808;9.968;2022-11-15T11:36:20;98392.44;;;21.37;45.91
46506;BME280;32220;49.808;9.968;2022-11-15T11:38:54;98398.19;;;21.34;46.14
46506;BME280;32220;49.808;9.968;2022-11-15T11:41:37;98390.28;;;21.32;46.64
46506;BME280;32220;49.808;9.968;2022-11-15T11:44:17;98395.31;;;21.35;45.35
46506;BME280;32220;49.808;9.968;2022-11-15T11:46:49;98389.59;;;21.38;45.55
46506;BME280;32220;49.808;9.968;2022-11-15T11:49:26;98376.63;;;21.34;46.26
46506;BME280;32220;49.808;9.968;2022-11-15T11:52:01;98374.50;;;21.21;46.67
46506;BME280;32220;49.808;9.968;2022-11-15T11:54:34;98375.88;;;21.09;46.25
46506;BME280;32220;49.808;9.968;2022-11-15T11:57:10;98380.78;;;20.97;46.49
46506;BME280;32220;49.808;9.968;2022-11-15T11:59:43;98379.81;;;20.82;46.59
46506;BME280;32220;49.808;9.968;2022-11-15T12:02:17;98358.69;;;20.55;46.41
46506;BME280;32220;49.808;9.968;2022-11-15T12:04:51;98369.28;;;20.40;46.49
46506;BME280;32220;49.808;9.968;2022-11-15T12:07:23;98349.94;;;20.04;46.33
46506;BME280;32220;49.808;9.968;2022-11-15T12:09:55;98363.75;;;20.01;46.06
46506;BME280;32220;49.808;9.968;2022-11-15T12:12:31;98363.22;;;19.89;47.49
46506;BME280;32220;49.808;9.968;2022-11-15T12:15:09;98353.28;;;19.73;47.48
46506;BME280;32220;49.808;9.968;2022-11-15T12:17:39;98335.13;;;19.59;48.37
46506;BME280;32220;49.808;9.968;2022-11-15T12:20:17;98336.13;;;19.50;48.84
46506;BME280;32220;49.808;9.968;2022-11-15T12:22:52;98329.69;;;19.35;49.26
46506;BME280;32220;49.808;9.968;2022-11-15T12:25:24;98316.41;;;19.25;49.59
46506;BME280;32220;49.808;9.968;2022-11-15T12:27:57;98300.09;;;19.11;50.17
46506;BME280;32220;49.808;9.968;2022-11-15T12:30:37;98293.34;;;19.07;50.16
46506;BME280;32220;49.808;9.968;2022-11-15T12:33:37;98299.56;;;19.07;49.91
46506;BME280;32220;49.808;9.968;2022-11-15T12:36:09;98300.06;;;19.02;50.38
46506;BME280;32220;49.808;9.968;2022-11-15T12:38:53;98298.34;;;18.93;50.67
46506;BME280;32220;49.808;9.968;2022-11-15T12:41:22;98300.63;;;18.80;51.23
46506;BME280;32220;49.808;9.968;2022-11-15T12:43:50;98290.72;;;18.73;51.64
46506;BME280;32220;49.808;9.968;2022-11-15T12:46:58;98257.97;;;18.61;50.99
46506;BME280;32220;49.808;9.968;2022-11-15T12:49:42;98272.47;;;18.76;51.55
46506;BME280;32220;49.808;9.968;2022-11-15T12:52:11;98267.41;;;18.73;51.29
46506;BME280;32220;49.808;9.968;2022-11-15T12:54:59;98255.13;;;18.62;51.48
46506;BME280;32220;49.808;9.968;2022-11-15T12:57:31;98264.19;;;18.61;51.70
46506;BME280;32220;49.808;9.968;2022-11-15T13:00:02;98260.97;;;18.58;52.21
46506;BME280;32220;49.808;9.968;2022-11-15T13:02:34;98242.28;;;18.48;52.68
46506;BME280;32220;49.808;9.968;2022-11-15T13:05:53;98251.09;;;18.58;53.32
46506;BME280;32220;49.808;9.968;2022-11-15T13:08:38;98244.16;;;18.56;52.87
46506;BME280;32220;49.808;9.968;2022-11-15T13:14:48;98231.31;;;18.59;53.54
46506;BME280;32220;49.808;9.968;2022-11-15T13:17:37;98237.53;;;18.60;53.77
46506;BME280;32220;49.808;9.968;2022-11-15T13:20:20;98232.94;;;18.52;53.96
46506;BME280;32220;49.808;9.968;2022-11-15T13:22:49;98228.41;;;18.53;54.65
46506;BME280;32220;49.808;9.968;2022-11-15T13:25:49;98218.19;;;18.56;54.90
46506;BME280;32220;49.808;9.968;2022-11-15T13:28:24;98226.56;;;18.53;54.47
46506;BME280;32220;49.808;9.968;2022-11-15T13:30:56;98220.00;;;18.48;54.80
46506;BME280;32220;49.808;9.968;2022-11-15T13:33:29;98196.31;;;18.35;54.84
46506;BME280;32220;49.808;9.968;2022-11-15T13:36:00;98219.63;;;18.43;54.30
46506;BME280;32220;49.808;9.968;2022-11-15T13:38:29;98216.81;;;18.44;54.46
46506;BME280;32220;49.808;9.968;2022-11-15T13:41:10;98206.13;;;18.52;54.89
46506;BME280;32220;49.808;9.968;2022-11-15T13:43:38;98206.03;;;18.62;54.29
46506;BME280;32220;49.808;9.968;2022-11-15T13:46:09;98212.91;;;18.64;54.13
46506;BME280;32220;49.808;9.968;2022-11-15T13:48:38;98214.41;;;18.67;54.21
46506;BME280;32220;49.808;9.968;2022-11-15T13:51:09;98213.91;;;18.63;54.17
46506;BME280;32220;49.808;9.968;2022-11-15T13:53:42;98192.50;;;18.46;53.80
46506;BME280;32220;49.808;9.968;2022-11-15T13:56:15;98199.88;;;18.44;54.19
46506;BME280;32220;49.808;9.968;2022-11-15T13:58:43;98204.69;;;18.32;55.00
46506;BME280;32220;49.808;9.968;2022-11-15T14:01:15;98205.47;;;18.16;55.29
46506;BME280;32220;49.808;9.968;2022-11-15T14:03:49;98207.03;;;18.01;55.27
46506;BME280;32220;49.808;9.968;2022-11-15T14:06:19;98190.56;;;17.88;55.79
46506;BME280;32220;49.808;9.968;2022-11-15T14:09:03;98176.28;;;17.79;56.16
46506;BME280;32220;49.808;9.968;2022-11-15T14:11:32;98183.28;;;17.80;56.13
46506;BME280;32220;49.808;9.968;2022-11-15T14:14:13;98178.25;;;17.77;56.60
46506;BME280;32220;49.808;9.968;2022-11-15T14:16:42;98175.06;;;17.74;56.97
46506;BME280;32220;49.808;9.968;2022-11-15T14:19:12;98171.38;;;17.75;56.87
46506;BME280;32220;49.808;9.968;2022-11-15T14:22:08;98175.75;;;17.76;56.60
46506;BME280;32220;49.808;9.968;2022-11-15T14:24:36;98163.34;;;17.75;56.77
46506;BME280;32220;49.808;9.968;2022-11-15T14:27:20;98149.91;;;17.67;57.17
46506;BME280;32220;49.808;9.968;2022-11-15T14:29:48;98163.34;;;17.75;57.17
46506;BME280;32220;49.808;9.968;2022-11-15T14:32:17;98166.63;;;17.69;57.32
46506;BME280;32220;49.808;9.968;2022-11-15T14:34:46;98165.72;;;17.60;57.02
46506;BME280;32220;49.808;9.968;2022-11-15T14:37:20;98155.41;;;17.47;57.50
46506;BME280;32220;49.808;9.968;2022-11-15T14:39:50;98118.31;;;17.09;57.87
46506;BME280;32220;49.808;9.968;2022-11-15T14:42:20;98137.38;;;17.06;58.02
46506;BME280;32220;49.808;9.968;2022-11-15T14:44:48;98148.97;;;16.97;58.48
46506;BME280;32220;49.808;9.968;2022-11-15T14:47:16;98137.44;;;16.78;58.31
46506;BME280;32220;49.808;9.968;2022-11-15T14:49:44;98143.03;;;16.58;58.32
46506;BME280;32220;49.808;9.968;2022-11-15T14:52:24;98126.44;;;16.36;59.30
46506;BME280;32220;49.808;9.968;2022-11-15T14:54:52;98119.47;;;16.26;59.66
46506;BME280;32220;49.808;9.968;2022-11-15T14:57:21;98117.00;;;16.14;60.50
46506;BME280;32220;49.808;9.968;2022-11-15T14:59:49;98108.06;;;16.06;60.46
46506;BME280;32220;49.808;9.968;2022-11-15T15:02:18;98109.78;;;15.97;60.59
46506;BME280;32220;49.808;9.968;2022-11-15T15:04:46;98113.75;;;15.93;60.83
46506;BME280;32220;49.808;9.968;2022-11-15T15:07:21;98098.59;;;15.84;60.98
46506;BME280;32220;49.808;9.968;2022-11-15T15:09:54;98009.75;;;15.27;61.32
46506;BME280;32220;49.808;9.968;2022-11-15T15:12:48;98018.16;;;15.32;61.54
46506;BME280;32220;49.808;9.968;2022-11-15T15:15:42;98051.38;;;15.48;61.96
46506;BME280;32220;49.808;9.968;2022-11-15T15:19:05;98006.28;;;15.17;62.40
46506;BME280;32220;49.808;9.968;2022-11-15T15:21:32;98050.19;;;15.32;62.31
46506;BME280;32220;49.808;9.968;2022-11-15T15:24:01;98069.19;;;15.47;62.74
46506;BME280;32220;49.808;9.968;2022-11-15T15:26:29;98079.34;;;15.43;62.16
46506;BME280;32220;49.808;9.968;2022-11-15T15:29:01;98064.50;;;15.31;62.48
46506;BME280;32220;49.808;9.968;2022-11-15T15:31:29;98064.50;;;15.31;62.57
46506;BME280;32220;49.808;9.968;2022-11-15T15:33:59;98062.53;;;15.24;62.80
46506;BME280;32220;49.808;9.968;2022-11-15T15:36:26;98056.09;;;15.17;63.16
46506;BME280;32220;49.808;9.968;2022-11-15T15:38:54;98037.31;;;14.99;63.36
46506;BME280;32220;49.808;9.968;2022-11-15T15:41:23;98053.75;;;15.04;63.48
46506;BME280;32220;49.808;9.968;2022-11-15T15:43:51;98054.16;;;14.99;63.23
46506;BME280;32220;49.808;9.968;2022-11-15T15:46:20;98058.25;;;14.94;63.86
46506;BME280;32220;49.808;9.968;2022-11-15T15:48:48;98051.66;;;14.88;63.66
46506;BME280;32220;49.808;9.968;2022-11-15T15:51:15;98042.44;;;14.83;63.85
46506;BME280;32220;49.808;9.968;2022-11-15T15:53:43;98025.75;;;14.71;63.40
46506;BME280;32220;49.808;9.968;2022-11-15T15:56:10;98040.72;;;14.72;63.61
46506;BME280;32220;49.808;9.968;2022-11-15T15:58:38;98033.19;;;14.67;63.57
46506;BME280;32220;49.808;9.968;2022-11-15T16:01:05;98024.75;;;14.62;64.10
46506;BME280;32220;49.808;9.968;2022-11-15T16:03:34;98025.34;;;14.56;63.95
46506;BME280;32220;49.808;9.968;2022-11-15T16:06:02;98014.09;;;14.53;63.81
46506;BME280;32220;49.808;9.968;2022-11-15T16:08:31;98010.88;;;14.49;64.10
46506;BME280;32220;49.808;9.968;2022-11-15T16:10:58;98006.84;;;14.45;64.96
46506;BME280;32220;49.808;9.968;2022-11-15T16:13:26;98009.06;;;14.40;65.19
46506;BME280;32220;49.808;9.968;2022-11-15T16:15:54;97993.06;;;14.21;65.24
46506;BME280;32220;49.808;9.968;2022-11-15T16:18:22;97995.72;;;14.21;65.23
46506;BME280;32220;49.808;9.968;2022-11-15T16:20:51;98017.16;;;14.29;64.89
46506;BME280;32220;49.808;9.968;2022-11-15T16:23:22;98011.41;;;14.24;65.51
46506;BME280;32220;49.808;9.968;2022-11-15T16:25:51;98007.34;;;14.20;65.49
46506;BME280;32220;49.808;9.968;2022-11-15T16:28:22;98019.97;;;14.18;65.06
46506;BME280;32220;49.808;9.968;2022-11-15T16:31:00;98003.53;;;14.13;66.06
46506;BME280;32220;49.808;9.968;2022-11-15T16:33:27;98008.16;;;14.11;65.82
46506;BME280;32220;49.808;9.968;2022-11-15T16:35:56;98003.97;;;14.08;65.45
46506;BME280;32220;49.808;9.968;2022-11-15T16:38:24;97995.28;;;13.96;65.49
46506;BME280;32220;49.808;9.968;2022-11-15T16:40:52;98003.69;;;14.01;65.57
46506;BME280;32220;49.808;9.968;2022-11-15T16:43:19;97961.47;;;13.68;65.54
46506;BME280;32220;49.808;9.968;2022-11-15T16:45:48;98005.94;;;13.96;65.72
46506;BME280;32220;49.808;9.968;2022-11-15T16:48:22;98012.34;;;13.94;66.17
46506;BME280;32220;49.808;9.968;2022-11-15T16:50:50;98009.13;;;13.90;66.31
46506;BME280;32220;49.808;9.968;2022-11-15T16:53:22;98003.09;;;13.88;66.53
46506;BME280;32220;49.808;9.968;2022-11-15T16:55:50;98007.03;;;13.84;66.43
46506;BME280;32220;49.808;9.968;2022-11-15T16:58:17;98009.94;;;13.81;66.58
46506;BME280;32220;49.808;9.968;2022-11-15T17:00:44;98010.94;;;13.80;66.80
46506;BME280;32220;49.808;9.968;2022-11-15T17:03:12;98003.91;;;13.79;66.73
46506;BME280;32220;49.808;9.968;2022-11-15T17:05:39;97987.09;;;13.69;66.38
46506;BME280;32220;49.808;9.968;2022-11-15T17:08:07;97995.50;;;13.74;66.84
46506;BME280;32220;49.808;9.968;2022-11-15T17:10:38;97984.44;;;13.69;67.64
46506;BME280;32220;49.808;9.968;2022-11-15T17:13:07;97982.03;;;13.66;67.63
46506;BME280;32220;49.808;9.968;2022-11-15T17:15:35;97975.03;;;13.65;68.03
46506;BME280;32220;49.808;9.968;2022-11-15T17:18:03;97980.50;;;13.63;67.67
46506;BME280;32220;49.808;9.968;2022-11-15T17:20:31;97976.13;;;13.62;67.56
46506;BME280;32220;49.808;9.968;2022-11-15T17:22:59;97979.66;;;13.63;67.61
46506;BME280;32220;49.808;9.968;2022-11-15T17:25:27;97984.00;;;13.64;67.65
46506;BME280;32220;49.808;9.968;2022-11-15T17:27:56;97974.47;;;13.61;67.46
46506;BME280;32220;49.808;9.968;2022-11-15T17:30:23;97976.00;;;13.64;67.25
46506;BME280;32220;49.808;9.968;2022-11-15T17:32:51;97968.03;;;13.64;67.34
46506;BME280;32220;49.808;9.968;2022-11-15T17:35:19;97960.47;;;13.59;67.54
46506;BME280;32220;49.808;9.968;2022-11-15T17:37:46;97961.84;;;13.54;67.70
46506;BME280;32220;49.808;9.968;2022-11-15T17:40:14;97967.03;;;13.46;67.74
46506;BME280;32220;49.808;9.968;2022-11-15T17:42:42;97959.56;;;13.40;68.33
46506;BME280;32220;49.808;9.968;2022-11-15T17:45:11;97903.56;;;13.01;68.45
46506;BME280;32220;49.808;9.968;2022-11-15T17:47:39;97950.00;;;13.27;68.94
46506;BME280;32220;49.808;9.968;2022-11-15T17:50:07;97948.59;;;13.23;68.92
46506;BME280;32220;49.808;9.968;2022-11-15T17:52:38;97938.75;;;13.14;69.01
46506;BME280;32220;49.808;9.968;2022-11-15T17:55:16;97925.03;;;13.09;69.23
46506;BME280;32220;49.808;9.968;2022-11-15T17:58:00;97921.91;;;13.04;69.67
46506;BME280;32220;49.808;9.968;2022-11-15T18:01:45;97891.63;;;12.86;70.38
46506;BME280;32220;49.808;9.968;2022-11-15T18:04:32;97873.66;;;12.69;70.10
46506;BME280;32220;49.808;9.968;2022-11-15T18:07:13;97846.16;;;12.49;70.08
46506;BME280;32220;49.808;9.968;2022-11-15T18:10:04;97830.19;;;12.39;69.94
46506;BME280;32220;49.808;9.968;2022-11-15T18:12:35;97889.63;;;12.78;69.78
46506;BME280;32220;49.808;9.968;2022-11-15T18:15:17;97878.97;;;12.69;70.12
46506;BME280;32220;49.808;9.968;2022-11-15T18:17:48;97898.84;;;12.74;70.53
46506;BME280;32220;49.808;9.968;2022-11-15T18:20:15;97918.47;;;12.83;70.37
46506;BME280;32220;49.808;9.968;2022-11-15T18:22:43;97917.88;;;12.79;70.27
46506;BME280;32220;49.808;9.968;2022-11-15T18:25:10;97919.00;;;12.77;69.95
46506;BME280;32220;49.808;9.968;2022-11-15T18:27:41;97890.09;;;12.63;70.47
46506;BME280;32220;49.808;9.968;2022-11-15T18:30:09;97907.47;;;12.67;70.63
46506;BME280;32220;49.808;9.968;2022-11-15T18:32:37;97905.28;;;12.72;71.19
46506;BME280;32220;49.808;9.968;2022-11-15T18:35:06;97899.25;;;12.70;71.27
46506;BME280;32220;49.808;9.968;2022-11-15T18:37:37;97843.03;;;12.34;70.86
46506;BME280;32220;49.808;9.968;2022-11-15T18:40:06;97905.53;;;12.69;70.65
46506;BME280;32220;49.808;9.968;2022-11-15T18:42:34;97892.09;;;12.61;70.69
46506;BME280;32220;49.808;9.968;2022-11-15T18:45:01;97913.50;;;12.69;70.11
46506;BME280;32220;49.808;9.968;2022-11-15T18:47:29;97910.59;;;12.72;70.04
46506;BME280;32220;49.808;9.968;2022-11-15T18:50:00;97889.69;;;12.57;69.86
46506;BME280;32220;49.808;9.968;2022-11-15T18:52:29;97861.81;;;12.52;69.53
46506;BME280;32220;49.808;9.968;2022-11-15T18:54:56;97898.56;;;12.77;69.43
46506;BME280;32220;49.808;9.968;2022-11-15T18:57:24;97838.84;;;12.41;69.50
46506;BME280;32220;49.808;9.968;2022-11-15T18:59:52;97885.41;;;12.76;69.06
46506;BME280;32220;49.808;9.968;2022-11-15T19:02:19;97873.09;;;12.75;69.09
46506;BME280;32220;49.808;9.968;2022-11-15T19:04:47;97889.38;;;12.81;68.52
46506;BME280;32220;49.808;9.968;2022-11-15T19:07:14;97857.97;;;12.66;68.54
46506;BME280;32220;49.808;9.968;2022-11-15T19:09:43;97886.88;;;12.89;68.41
46506;BME280;32220;49.808;9.968;2022-11-15T19:12:11;97865.59;;;12.80;68.36
46506;BME280;32220;49.808;9.968;2022-11-15T19:14:39;97871.63;;;12.82;68.34
46506;BME280;32220;49.808;9.968;2022-11-15T19:17:06;97837.00;;;12.63;68.58
46506;BME280;32220;49.808;9.968;2022-11-15T19:19:34;97849.63;;;12.70;68.57
46506;BME280;32220;49.808;9.968;2022-11-15T19:22:02;97886.16;;;12.87;68.12
46506;BME280;32220;49.808;9.968;2022-11-15T19:24:30;97875.97;;;12.83;67.90
46506;BME280;32220;49.808;9.968;2022-11-15T19:26:59;97880.97;;;12.86;68.04
46506;BME280;32220;49.808;9.968;2022-11-15T19:29:26;97872.34;;;12.84;68.12
46506;BME280;32220;49.808;9.968;2022-11-15T19:31:54;97877.66;;;12.84;67.93
46506;BME280;32220;49.808;9.968;2022-11-15T19:34:21;97869.66;;;12.84;67.96
46506;BME280;32220;49.808;9.968;2022-11-15T19:36:49;97870.50;;;12.84;67.86
46506;BME280;32220;49.808;9.968;2022-11-15T19:39:17;97868.69;;;12.85;67.98
46506;BME280;32220;49.808;9.968;2022-11-15T19:41:45;97867.00;;;12.84;67.53
46506;BME280;32220;49.808;9.968;2022-11-15T19:44:14;97837.56;;;12.66;67.45
46506;BME280;32220;49.808;9.968;2022-11-15T19:46:43;97849.88;;;12.67;67.71
46506;BME280;32220;49.808;9.968;2022-11-15T19:49:11;97855.22;;;12.77;67.55
46506;BME280;32220;49.808;9.968;2022-11-15T19:51:39;97868.97;;;12.82;67.65
46506;BME280;32220;49.808;9.968;2022-11-15T19:54:10;97858.13;;;12.74;67.34
46506;BME280;32220;49.808;9.968;2022-11-15T19:56:38;97871.34;;;12.85;67.50
46506;BME280;32220;49.808;9.968;2022-11-15T19:59:06;97847.50;;;12.74;67.08
46506;BME280;32220;49.808;9.968;2022-11-15T20:01:35;97860.56;;;12.86;66.85
46506;BME280;32220;49.808;9.968;2022-11-15T20:04:05;97819.38;;;12.62;66.73
46506;BME280;32220;49.808;9.968;2022-11-15T20:06:34;97865.03;;;12.86;66.78
46506;BME280;32220;49.808;9.968;2022-11-15T20:09:03;97840.69;;;12.71;66.60
46506;BME280;32220;49.808;9.968;2022-11-15T20:11:30;97819.06;;;12.55;66.50
46506;BME280;32220;49.808;9.968;2022-11-15T20:13:59;97854.25;;;12.78;66.07
46506;BME280;32220;49.808;9.968;2022-11-15T20:16:28;97876.38;;;12.88;66.00
46506;BME280;32220;49.808;9.968;2022-11-15T20:18:58;97804.06;;;12.44;66.34
